createdAt,value
2023-02-14T00:00:32.305Z,101259.16
2023-02-14T00:06:35.472Z,101264.00
2023-02-14T00:12:37.406Z,101264.16
2023-02-14T00:18:57.940Z,101259.81
2023-02-14T00:24:59.828Z,101259.31
2023-02-14T00:31:02.506Z,101256.06
2023-02-14T00:37:04.798Z,101254.16
2023-02-14T00:43:06.670Z,101264.31
2023-02-14T00:49:08.735Z,101265.16
2023-02-14T00:55:10.602Z,101272.69
2023-02-14T01:01:14.062Z,101260.81
2023-02-14T01:07:16.014Z,101267.09
2023-02-14T01:13:19.195Z,101264.59
2023-02-14T01:19:21.085Z,101268.88
2023-02-14T01:25:22.976Z,101267.44
2023-02-14T01:31:28.819Z,101268.09
2023-02-14T01:37:30.978Z,101267.72
2023-02-14T01:44:00.290Z,101275.78
2023-02-14T01:50:24.412Z,101282.81
2023-02-14T01:56:35.393Z,101278.53
2023-02-14T02:02:37.394Z,101282.41
2023-02-14T02:08:50.969Z,101275.94
2023-02-14T02:14:56.671Z,101260.53
2023-02-14T02:21:52.439Z,101254.47
2023-02-14T02:28:32.447Z,101246.38
2023-02-14T02:35:34.418Z,101243.91
2023-02-14T02:42:00.518Z,101249.47
2023-02-14T02:48:20.028Z,101241.56
2023-02-14T02:54:43.000Z,101235.34
2023-02-14T03:00:46.149Z,101235.41
2023-02-14T03:06:49.080Z,101235.75
2023-02-14T03:13:06.009Z,101228.88
2023-02-14T03:19:48.716Z,101229.16
2023-02-14T03:25:59.104Z,101232.13
2023-02-14T03:32:25.001Z,101219.44
2023-02-14T03:38:39.804Z,101211.75
2023-02-14T03:44:44.206Z,101211.38
2023-02-14T03:50:48.547Z,101206.22
2023-02-14T03:56:56.987Z,101196.19
2023-02-14T04:03:08.481Z,101200.50
2023-02-14T04:09:10.392Z,101207.19
2023-02-14T04:15:13.514Z,101196.41
2023-02-14T04:21:16.397Z,101188.34
2023-02-14T04:27:18.281Z,101190.53
2023-02-14T04:33:20.169Z,101202.09
2023-02-14T04:39:22.079Z,101204.91
2023-02-14T04:45:23.978Z,101202.19
2023-02-14T04:51:27.590Z,101197.88
2023-02-14T04:57:29.620Z,101194.63
2023-02-14T05:03:31.489Z,101201.59
2023-02-14T05:09:33.471Z,101202.53
2023-02-14T05:15:38.111Z,101202.94
2023-02-14T05:21:40.557Z,101202.19
2023-02-14T05:27:42.518Z,101201.44
2023-02-14T05:33:44.427Z,101193.97
2023-02-14T05:39:46.299Z,101187.94
2023-02-14T05:45:48.974Z,101185.44
2023-02-14T05:51:50.917Z,101186.34
2023-02-14T05:57:52.814Z,101189.97
2023-02-14T06:03:54.693Z,101194.97
2023-02-14T06:09:57.162Z,101204.78
2023-02-14T06:15:59.065Z,101207.69
2023-02-14T06:22:01.024Z,101205.38
2023-02-14T06:28:02.943Z,101210.38
2023-02-14T06:34:04.853Z,101214.97
2023-02-14T06:40:08.836Z,101213.19
2023-02-14T06:46:11.596Z,101212.50
2023-02-14T06:52:13.649Z,101213.66
2023-02-14T06:58:15.770Z,101226.00
2023-02-14T07:04:17.877Z,101215.50
2023-02-14T07:10:20.261Z,101215.81
2023-02-14T07:16:22.133Z,101214.44
2023-02-14T07:22:24.060Z,101216.63
2023-02-14T07:28:25.980Z,101208.53
2023-02-14T07:34:27.914Z,101202.03
2023-02-14T07:40:30.027Z,101213.50
2023-02-14T07:46:32.094Z,101208.38
2023-02-14T07:52:34.032Z,101200.38
2023-02-14T07:58:35.968Z,101202.69
2023-02-14T08:04:37.900Z,101203.97
2023-02-14T08:10:39.798Z,101211.75
2023-02-14T08:16:41.742Z,101216.88
2023-02-14T08:22:43.623Z,101217.22
2023-02-14T08:28:45.572Z,101217.31
2023-02-14T08:34:48.038Z,101214.97
2023-02-14T08:40:49.932Z,101215.38
2023-02-14T08:46:51.948Z,101210.81
2023-02-14T08:52:53.890Z,101214.41
2023-02-14T08:58:55.859Z,101203.81
2023-02-14T09:04:57.794Z,101196.69
2023-02-14T09:11:00.118Z,101201.25
2023-02-14T09:17:05.320Z,101206.94
2023-02-14T09:23:07.217Z,101191.47
2023-02-14T09:29:11.164Z,101194.97
2023-02-14T09:35:13.064Z,101193.75
2023-02-14T09:41:59.915Z,101185.19
2023-02-14T09:48:28.213Z,101183.22
2023-02-14T09:54:33.337Z,101174.25
2023-02-14T10:00:52.957Z,101172.56
2023-02-14T10:07:56.078Z,101177.88
2023-02-14T10:14:20.953Z,101179.25
2023-02-14T10:20:37.481Z,101172.22
2023-02-14T10:26:41.322Z,101172.72
2023-02-14T10:32:48.541Z,101174.63
2023-02-14T10:39:08.537Z,101166.09
2023-02-14T10:45:22.988Z,101160.72
2023-02-14T10:51:46.875Z,101157.84
2023-02-14T10:57:55.486Z,101140.34
2023-02-14T11:04:08.484Z,101141.03
2023-02-14T11:10:14.631Z,101127.09
2023-02-14T11:16:33.441Z,101122.84
2023-02-14T11:22:35.753Z,101119.50
2023-02-14T11:29:15.164Z,101111.53
2023-02-14T11:35:33.661Z,101099.50
2023-02-14T11:41:56.174Z,101096.38
2023-02-14T11:48:36.776Z,101085.97
2023-02-14T11:54:41.740Z,101077.88
2023-02-14T12:00:53.412Z,101078.59
2023-02-14T12:06:55.966Z,101070.47
2023-02-14T12:13:09.722Z,101060.84
2023-02-14T12:19:19.968Z,101052.19
2023-02-14T12:25:32.757Z,101042.19
2023-02-14T12:31:34.710Z,101034.78
2023-02-14T12:37:50.836Z,101023.53
2023-02-14T12:44:27.786Z,101023.75
2023-02-14T12:51:00.093Z,101021.91
2023-02-14T12:57:35.384Z,101007.63
2023-02-14T13:03:54.930Z,101005.06
2023-02-14T13:10:26.026Z,100985.66
2023-02-14T13:16:55.232Z,100980.97
2023-02-14T13:23:05.128Z,100962.31
2023-02-14T13:29:14.630Z,100955.47
2023-02-14T13:35:21.606Z,100947.41
2023-02-14T13:41:24.883Z,100952.00
2023-02-14T13:47:27.280Z,100940.00
2023-02-14T13:53:45.202Z,100933.72
2023-02-14T13:59:47.116Z,100929.09
2023-02-14T14:05:57.201Z,100926.00
2023-02-14T14:11:59.624Z,100915.88
2023-02-14T14:18:13.580Z,100906.94
2023-02-14T14:24:34.802Z,100906.97
2023-02-14T14:30:44.437Z,100905.00
2023-02-14T14:36:47.373Z,100901.50
2023-02-14T14:42:49.899Z,100886.22
2023-02-14T14:48:55.036Z,100875.97
2023-02-14T14:54:58.291Z,100875.13
2023-02-14T15:01:00.297Z,100867.75
2023-02-14T15:07:33.960Z,100862.69
2023-02-14T15:13:54.962Z,100854.53
2023-02-14T15:20:19.185Z,100851.53
2023-02-14T15:26:34.412Z,100845.31
2023-02-14T15:32:38.228Z,100830.38
2023-02-14T15:38:41.747Z,100841.16
2023-02-14T15:44:43.838Z,100825.31
2023-02-14T15:50:55.954Z,100828.00
2023-02-14T15:56:58.814Z,100825.28
2023-02-14T16:03:06.316Z,100823.03
2023-02-14T16:09:26.310Z,100823.44
2023-02-14T16:15:35.169Z,100816.41
2023-02-14T16:21:37.136Z,100815.94
2023-02-14T16:27:39.108Z,100815.84
2023-02-14T16:33:41.496Z,100817.25
2023-02-14T16:39:43.385Z,100817.75
2023-02-14T16:45:45.580Z,100818.56
2023-02-14T16:51:47.919Z,100818.72
2023-02-14T16:57:53.031Z,100815.31
2023-02-14T17:03:55.607Z,100818.44
2023-02-14T17:10:07.663Z,100823.50
2023-02-14T17:16:11.918Z,100818.34
2023-02-14T17:22:15.050Z,100826.97
2023-02-14T17:28:16.992Z,100825.28
2023-02-14T17:34:18.867Z,100831.38
2023-02-14T17:40:21.057Z,100830.31
2023-02-14T17:46:23.042Z,100814.13
2023-02-14T17:52:25.559Z,100827.66
2023-02-14T17:58:27.473Z,100827.34
2023-02-14T18:04:34.814Z,100830.66
2023-02-14T18:10:37.953Z,100834.31
2023-02-14T18:16:40.673Z,100827.59
2023-02-14T18:22:42.700Z,100824.94
2023-02-14T18:28:44.880Z,100820.13
2023-02-14T18:34:46.789Z,100810.47
2023-02-14T18:40:48.734Z,100816.00
2023-02-14T18:46:50.635Z,100812.53
2023-02-14T18:52:52.514Z,100821.72
2023-02-14T18:59:01.234Z,100808.09
2023-02-14T19:05:04.281Z,100802.66
2023-02-14T19:11:26.049Z,100799.41
2023-02-14T19:17:28.370Z,100804.25
2023-02-14T19:23:30.296Z,100800.13
2023-02-14T19:29:32.243Z,100794.94
2023-02-14T19:35:34.191Z,100796.66
2023-02-14T19:41:36.098Z,100805.19
2023-02-14T19:47:47.220Z,100787.34
2023-02-14T19:53:50.132Z,100794.06
2023-02-14T19:59:52.026Z,100786.72
2023-02-14T20:05:55.061Z,100778.75
2023-02-14T20:11:58.524Z,100777.50
2023-02-14T20:18:01.338Z,100776.53
2023-02-14T20:24:04.582Z,100777.81
2023-02-14T20:30:07.633Z,100777.22
2023-02-14T20:36:10.008Z,100767.13
2023-02-14T20:42:12.034Z,100759.78
2023-02-14T20:48:13.986Z,100755.91
2023-02-14T20:54:18.172Z,100741.94
2023-02-14T21:00:20.397Z,100754.22
2023-02-14T21:06:25.761Z,100746.41
2023-02-14T21:12:27.768Z,100746.41
2023-02-14T21:18:30.659Z,100748.16
2023-02-14T21:24:32.639Z,100748.50
2023-02-14T21:30:34.519Z,100734.28
2023-02-14T21:36:36.616Z,100728.84
2023-02-14T21:42:38.524Z,100726.56
2023-02-14T21:48:59.300Z,100726.81
2023-02-14T21:55:01.194Z,100731.06
2023-02-14T22:01:03.216Z,100738.16
2023-02-14T22:07:05.597Z,100739.50
2023-02-14T22:13:07.527Z,100734.44
2023-02-14T22:19:15.534Z,100735.84
2023-02-14T22:25:17.580Z,100736.44
2023-02-14T22:31:20.063Z,100739.59
2023-02-14T22:37:22.048Z,100734.41
2023-02-14T22:43:23.965Z,100738.22
2023-02-14T22:49:25.889Z,100728.19
2023-02-14T22:55:28.271Z,100720.56
2023-02-14T23:01:31.164Z,100724.69
2023-02-14T23:07:33.074Z,100716.63
2023-02-14T23:13:54.514Z,100722.50
2023-02-14T23:20:14.901Z,100719.28
2023-02-14T23:26:20.290Z,100705.78
2023-02-14T23:32:22.251Z,100714.44
2023-02-14T23:38:24.170Z,100704.69
2023-02-14T23:44:28.240Z,100699.97
2023-02-14T23:50:30.159Z,100708.56
2023-02-14T23:56:32.246Z,100697.94
